sensor_id;sensor_type;location;lat;lon;timestamp;temperature;humidity
7360;DHT22;3720;48.274;7.796;2022-07-15T00:01:36;23.20;79.80
7360;DHT22;3720;48.274;7.796;2022-07-15T00:04:08;23.20;79.80
7360;DHT22;3720;48.274;7.796;2022-07-15T00:06:40;23.10;80.20
7360;DHT22;3720;48.274;7.796;2022-07-15T00:09:12;23.20;80.70
7360;DHT22;3720;48.274;7.796;2022-07-15T00:11:44;23.10;81.00
7360;DHT22;3720;48.274;7.796;2022-07-15T00:14:16;23.20;80.70
7360;DHT22;3720;48.274;7.796;2022-07-15T00:16:49;23.20;80.80
7360;DHT22;3720;48.274;7.796;2022-07-15T00:19:21;23.10;80.50
7360;DHT22;3720;48.274;7.796;2022-07-15T00:21:53;23.10;80.80
7360;DHT22;3720;48.274;7.796;2022-07-15T00:24:26;23.10;81.50
7360;DHT22;3720;48.274;7.796;2022-07-15T00:26:59;23.10;81.80
7360;DHT22;3720;48.274;7.796;2022-07-15T00:29:32;23.00;81.20
7360;DHT22;3720;48.274;7.796;2022-07-15T00:32:06;22.90;83.50
7360;DHT22;3720;48.274;7.796;2022-07-15T00:34:39;22.90;82.40
7360;DHT22;3720;48.274;7.796;2022-07-15T00:37:11;22.90;82.00
7360;DHT22;3720;48.274;7.796;2022-07-15T00:39:43;22.80;82.20
7360;DHT22;3720;48.274;7.796;2022-07-15T00:42:15;22.70;83.20
7360;DHT22;3720;48.274;7.796;2022-07-15T00:45:15;22.70;83.10
7360;DHT22;3720;48.274;7.796;2022-07-15T00:47:50;22.70;83.50
7360;DHT22;3720;48.274;7.796;2022-07-15T00:50:25;22.70;84.00
7360;DHT22;3720;48.274;7.796;2022-07-15T00:53:03;22.70;83.80
7360;DHT22;3720;48.274;7.796;2022-07-15T00:55:38;22.60;83.60
7360;DHT22;3720;48.274;7.796;2022-07-15T00:58:15;22.60;83.30
7360;DHT22;3720;48.274;7.796;2022-07-15T01:00:48;22.50;84.10
7360;DHT22;3720;48.274;7.796;2022-07-15T01:03:23;22.50;83.90
7360;DHT22;3720;48.274;7.796;2022-07-15T01:05:58;22.40;84.10
7360;DHT22;3720;48.274;7.796;2022-07-15T01:08:30;22.40;84.90
7360;DHT22;3720;48.274;7.796;2022-07-15T01:11:02;22.30;85.00
7360;DHT22;3720;48.274;7.796;2022-07-15T01:13:34;22.30;85.70
7360;DHT22;3720;48.274;7.796;2022-07-15T01:16:07;22.30;85.60
7360;DHT22;3720;48.274;7.796;2022-07-15T01:18:40;22.30;85.20
7360;DHT22;3720;48.274;7.796;2022-07-15T01:21:14;22.30;85.60
7360;DHT22;3720;48.274;7.796;2022-07-15T01:23:46;22.20;85.70
7360;DHT22;3720;48.274;7.796;2022-07-15T01:26:18;22.20;85.40
7360;DHT22;3720;48.274;7.796;2022-07-15T01:28:50;22.00;85.90
7360;DHT22;3720;48.274;7.796;2022-07-15T01:31:23;21.90;86.80
7360;DHT22;3720;48.274;7.796;2022-07-15T01:33:54;21.80;88.30
7360;DHT22;3720;48.274;7.796;2022-07-15T01:36:28;21.70;88.20
7360;DHT22;3720;48.274;7.796;2022-07-15T01:39:00;21.60;89.60
7360;DHT22;3720;48.274;7.796;2022-07-15T01:41:32;21.60;89.50
7360;DHT22;3720;48.274;7.796;2022-07-15T01:44:04;21.50;90.20
7360;DHT22;3720;48.274;7.796;2022-07-15T01:46:36;21.50;90.80
7360;DHT22;3720;48.274;7.796;2022-07-15T01:49:08;21.60;90.90
7360;DHT22;3720;48.274;7.796;2022-07-15T01:52:00;21.50;90.90
7360;DHT22;3720;48.274;7.796;2022-07-15T01:54:32;21.50;91.10
7360;DHT22;3720;48.274;7.796;2022-07-15T01:57:05;21.60;91.00
7360;DHT22;3720;48.274;7.796;2022-07-15T01:59:37;21.50;91.00
7360;DHT22;3720;48.274;7.796;2022-07-15T02:02:09;21.50;91.10
7360;DHT22;3720;48.274;7.796;2022-07-15T02:04:41;21.60;91.60
7360;DHT22;3720;48.274;7.796;2022-07-15T02:07:15;21.60;91.00
7360;DHT22;3720;48.274;7.796;2022-07-15T02:09:47;21.50;91.40
7360;DHT22;3720;48.274;7.796;2022-07-15T02:12:29;21.40;91.50
7360;DHT22;3720;48.274;7.796;2022-07-15T02:15:01;21.30;92.00
7360;DHT22;3720;48.274;7.796;2022-07-15T02:17:34;21.20;92.20
7360;DHT22;3720;48.274;7.796;2022-07-15T02:20:06;21.10;93.10
7360;DHT22;3720;48.274;7.796;2022-07-15T02:22:40;21.10;93.00
7360;DHT22;3720;48.274;7.796;2022-07-15T02:25:12;21.10;93.40
7360;DHT22;3720;48.274;7.796;2022-07-15T02:27:44;21.20;93.40
7360;DHT22;3720;48.274;7.796;2022-07-15T02:30:16;21.10;93.00
7360;DHT22;3720;48.274;7.796;2022-07-15T02:32:48;21.00;93.30
7360;DHT22;3720;48.274;7.796;2022-07-15T02:35:20;21.00;93.90
7360;DHT22;3720;48.274;7.796;2022-07-15T02:37:53;20.90;94.30
7360;DHT22;3720;48.274;7.796;2022-07-15T02:40:25;20.70;94.60
7360;DHT22;3720;48.274;7.796;2022-07-15T02:43:01;20.70;95.40
7360;DHT22;3720;48.274;7.796;2022-07-15T02:45:35;20.80;95.90
7360;DHT22;3720;48.274;7.796;2022-07-15T02:48:08;20.80;95.50
7360;DHT22;3720;48.274;7.796;2022-07-15T02:50:41;20.80;95.80
7360;DHT22;3720;48.274;7.796;2022-07-15T02:53:15;20.70;95.90
7360;DHT22;3720;48.274;7.796;2022-07-15T02:55:48;20.70;96.10
7360;DHT22;3720;48.274;7.796;2022-07-15T02:58:21;20.60;96.10
7360;DHT22;3720;48.274;7.796;2022-07-15T03:00:54;20.50;96.40
7360;DHT22;3720;48.274;7.796;2022-07-15T03:03:26;20.50;96.80
7360;DHT22;3720;48.274;7.796;2022-07-15T03:05:59;20.30;97.30
7360;DHT22;3720;48.274;7.796;2022-07-15T03:08:33;20.20;97.70
7360;DHT22;3720;48.274;7.796;2022-07-15T03:11:05;20.20;98.50
7360;DHT22;3720;48.274;7.796;2022-07-15T03:13:37;20.10;98.60
7360;DHT22;3720;48.274;7.796;2022-07-15T03:16:09;20.00;99.40
7360;DHT22;3720;48.274;7.796;2022-07-15T03:18:41;20.00;99.40
7360;DHT22;3720;48.274;7.796;2022-07-15T03:21:13;20.00;99.80
7360;DHT22;3720;48.274;7.796;2022-07-15T03:23:47;20.00;99.90
7360;DHT22;3720;48.274;7.796;2022-07-15T03:26:19;20.00;99.90
7360;DHT22;3720;48.274;7.796;2022-07-15T03:28:52;20.00;99.90
7360;DHT22;3720;48.274;7.796;2022-07-15T03:31:24;19.90;99.90
7360;DHT22;3720;48.274;7.796;2022-07-15T03:33:56;19.80;99.90
7360;DHT22;3720;48.274;7.796;2022-07-15T03:36:28;19.80;99.90
7360;DHT22;3720;48.274;7.796;2022-07-15T03:39:01;19.70;99.90
7360;DHT22;3720;48.274;7.796;2022-07-15T03:41:34;19.80;99.90
7360;DHT22;3720;48.274;7.796;2022-07-15T03:44:06;19.80;99.90
7360;DHT22;3720;48.274;7.796;2022-07-15T03:46:37;19.70;99.90
7360;DHT22;3720;48.274;7.796;2022-07-15T03:49:09;19.60;99.90
7360;DHT22;3720;48.274;7.796;2022-07-15T03:51:42;19.60;99.90
7360;DHT22;3720;48.274;7.796;2022-07-15T03:54:15;19.50;99.90
7360;DHT22;3720;48.274;7.796;2022-07-15T03:56:48;19.50;99.90
7360;DHT22;3720;48.274;7.796;2022-07-15T03:59:21;19.50;99.90
7360;DHT22;3720;48.274;7.796;2022-07-15T04:01:53;19.50;99.90
7360;DHT22;3720;48.274;7.796;2022-07-15T04:04:25;19.50;99.90
7360;DHT22;3720;48.274;7.796;2022-07-15T04:06:57;19.40;99.90
7360;DHT22;3720;48.274;7.796;2022-07-15T04:09:30;19.50;99.90
7360;DHT22;3720;48.274;7.796;2022-07-15T04:12:03;19.40;99.90
7360;DHT22;3720;48.274;7.796;2022-07-15T04:14:35;19.50;99.90
7360;DHT22;3720;48.274;7.796;2022-07-15T04:17:07;19.50;99.90
7360;DHT22;3720;48.274;7.796;2022-07-15T04:19:39;19.50;99.90
7360;DHT22;3720;48.274;7.796;2022-07-15T04:22:11;19.60;99.90
7360;DHT22;3720;48.274;7.796;2022-07-15T04:24:44;19.60;99.90
7360;DHT22;3720;48.274;7.796;2022-07-15T04:27:16;19.70;99.90
7360;DHT22;3720;48.274;7.796;2022-07-15T04:29:48;19.70;99.90
7360;DHT22;3720;48.274;7.796;2022-07-15T04:32:20;19.70;99.90
7360;DHT22;3720;48.274;7.796;2022-07-15T04:34:53;19.60;99.90
7360;DHT22;3720;48.274;7.796;2022-07-15T04:37:24;19.60;99.90
7360;DHT22;3720;48.274;7.796;2022-07-15T04:39:58;19.60;99.90
7360;DHT22;3720;48.274;7.796;2022-07-15T04:42:30;19.60;99.90
7360;DHT22;3720;48.274;7.796;2022-07-15T04:45:03;19.50;99.90
7360;DHT22;3720;48.274;7.796;2022-07-15T04:47:35;19.60;99.90
7360;DHT22;3720;48.274;7.796;2022-07-15T04:50:08;19.70;99.90
7360;DHT22;3720;48.274;7.796;2022-07-15T04:52:57;19.70;99.90
7360;DHT22;3720;48.274;7.796;2022-07-15T04:55:31;19.80;99.90
7360;DHT22;3720;48.274;7.796;2022-07-15T04:58:03;20.00;99.90
7360;DHT22;3720;48.274;7.796;2022-07-15T05:00:35;20.00;99.90
7360;DHT22;3720;48.274;7.796;2022-07-15T05:03:07;20.10;99.90
7360;DHT22;3720;48.274;7.796;2022-07-15T05:05:39;20.00;99.90
7360;DHT22;3720;48.274;7.796;2022-07-15T05:08:12;20.00;99.90
7360;DHT22;3720;48.274;7.796;2022-07-15T05:10:46;20.00;99.90
7360;DHT22;3720;48.274;7.796;2022-07-15T05:13:18;20.00;99.90
7360;DHT22;3720;48.274;7.796;2022-07-15T05:15:50;20.00;99.90
7360;DHT22;3720;48.274;7.796;2022-07-15T05:18:22;20.00;99.90
7360;DHT22;3720;48.274;7.796;2022-07-15T05:20:55;20.20;99.90
7360;DHT22;3720;48.274;7.796;2022-07-15T05:23:27;20.20;99.90
7360;DHT22;3720;48.274;7.796;2022-07-15T05:26:00;20.20;99.90
7360;DHT22;3720;48.274;7.796;2022-07-15T05:28:33;20.30;99.90
7360;DHT22;3720;48.274;7.796;2022-07-15T05:31:05;20.40;99.90
7360;DHT22;3720;48.274;7.796;2022-07-15T05:33:37;20.40;99.90
7360;DHT22;3720;48.274;7.796;2022-07-15T05:36:13;20.40;99.90
7360;DHT22;3720;48.274;7.796;2022-07-15T05:38:46;20.30;99.90
7360;DHT22;3720;48.274;7.796;2022-07-15T05:41:19;20.40;99.90
7360;DHT22;3720;48.274;7.796;2022-07-15T05:43:52;20.40;99.90
7360;DHT22;3720;48.274;7.796;2022-07-15T05:46:24;20.40;99.90
7360;DHT22;3720;48.274;7.796;2022-07-15T05:48:56;20.50;99.90
7360;DHT22;3720;48.274;7.796;2022-07-15T05:51:28;20.50;99.90
7360;DHT22;3720;48.274;7.796;2022-07-15T05:54:00;20.50;99.90
7360;DHT22;3720;48.274;7.796;2022-07-15T05:56:34;20.40;99.90
7360;DHT22;3720;48.274;7.796;2022-07-15T05:59:06;20.40;99.90
7360;DHT22;3720;48.274;7.796;2022-07-15T06:01:38;20.30;99.90
7360;DHT22;3720;48.274;7.796;2022-07-15T06:04:10;20.30;99.90
7360;DHT22;3720;48.274;7.796;2022-07-15T06:06:42;20.20;99.90
7360;DHT22;3720;48.274;7.796;2022-07-15T06:09:14;20.20;99.90
7360;DHT22;3720;48.274;7.796;2022-07-15T06:11:48;20.20;99.90
7360;DHT22;3720;48.274;7.796;2022-07-15T06:14:20;20.20;99.90
7360;DHT22;3720;48.274;7.796;2022-07-15T06:16:52;20.20;99.90
7360;DHT22;3720;48.274;7.796;2022-07-15T06:19:24;20.20;99.90
7360;DHT22;3720;48.274;7.796;2022-07-15T06:21:56;20.20;99.90
7360;DHT22;3720;48.274;7.796;2022-07-15T06:24:29;20.20;99.90
7360;DHT22;3720;48.274;7.796;2022-07-15T06:27:03;20.20;99.90
7360;DHT22;3720;48.274;7.796;2022-07-15T06:29:35;20.20;99.90
7360;DHT22;3720;48.274;7.796;2022-07-15T06:32:07;20.30;99.90
7360;DHT22;3720;48.274;7.796;2022-07-15T06:34:42;20.40;99.90
7360;DHT22;3720;48.274;7.796;2022-07-15T06:37:14;20.50;99.90
7360;DHT22;3720;48.274;7.796;2022-07-15T06:39:46;20.60;99.90
7360;DHT22;3720;48.274;7.796;2022-07-15T06:42:20;20.60;99.90
7360;DHT22;3720;48.274;7.796;2022-07-15T06:44:52;20.60;99.90
7360;DHT22;3720;48.274;7.796;2022-07-15T06:47:24;20.70;99.90
7360;DHT22;3720;48.274;7.796;2022-07-15T06:49:57;20.80;99.90
7360;DHT22;3720;48.274;7.796;2022-07-15T06:52:29;20.90;99.90
7360;DHT22;3720;48.274;7.796;2022-07-15T06:55:02;20.90;99.90
7360;DHT22;3720;48.274;7.796;2022-07-15T06:57:36;21.00;99.90
7360;DHT22;3720;48.274;7.796;2022-07-15T07:00:09;21.00;99.90
7360;DHT22;3720;48.274;7.796;2022-07-15T07:02:42;21.10;99.90
7360;DHT22;3720;48.274;7.796;2022-07-15T07:05:15;21.20;99.90
7360;DHT22;3720;48.274;7.796;2022-07-15T07:07:47;21.30;99.90
7360;DHT22;3720;48.274;7.796;2022-07-15T07:10:19;21.40;99.90
7360;DHT22;3720;48.274;7.796;2022-07-15T07:12:53;21.50;99.90
7360;DHT22;3720;48.274;7.796;2022-07-15T07:15:25;21.60;99.90
7360;DHT22;3720;48.274;7.796;2022-07-15T07:17:58;21.70;99.90
7360;DHT22;3720;48.274;7.796;2022-07-15T07:20:30;21.80;99.90
7360;DHT22;3720;48.274;7.796;2022-07-15T07:23:02;21.90;99.90
7360;DHT22;3720;48.274;7.796;2022-07-15T07:25:34;22.00;99.90
7360;DHT22;3720;48.274;7.796;2022-07-15T07:28:08;22.10;99.90
7360;DHT22;3720;48.274;7.796;2022-07-15T07:30:40;22.20;99.90
7360;DHT22;3720;48.274;7.796;2022-07-15T07:33:11;22.30;99.90
7360;DHT22;3720;48.274;7.796;2022-07-15T07:35:44;22.40;99.90
7360;DHT22;3720;48.274;7.796;2022-07-15T07:38:17;22.50;99.90
7360;DHT22;3720;48.274;7.796;2022-07-15T07:40:50;22.50;99.90
7360;DHT22;3720;48.274;7.796;2022-07-15T07:43:24;22.60;99.90
7360;DHT22;3720;48.274;7.796;2022-07-15T07:45:56;22.70;99.90
7360;DHT22;3720;48.274;7.796;2022-07-15T07:48:28;22.80;99.90
7360;DHT22;3720;48.274;7.796;2022-07-15T07:51:01;22.90;99.90
7360;DHT22;3720;48.274;7.796;2022-07-15T07:53:33;23.00;99.90
7360;DHT22;3720;48.274;7.796;2022-07-15T07:56:05;23.10;99.90
7360;DHT22;3720;48.274;7.796;2022-07-15T07:58:40;23.20;99.90
7360;DHT22;3720;48.274;7.796;2022-07-15T08:01:12;23.30;99.90
7360;DHT22;3720;48.274;7.796;2022-07-15T08:03:44;23.30;99.90
7360;DHT22;3720;48.274;7.796;2022-07-15T08:06:16;23.50;99.90
7360;DHT22;3720;48.274;7.796;2022-07-15T08:08:48;23.50;99.90
7360;DHT22;3720;48.274;7.796;2022-07-15T08:11:20;23.70;99.90
7360;DHT22;3720;48.274;7.796;2022-07-15T08:13:54;23.80;99.90
7360;DHT22;3720;48.274;7.796;2022-07-15T08:16:26;23.90;99.90
7360;DHT22;3720;48.274;7.796;2022-07-15T08:18:58;24.10;99.90
7360;DHT22;3720;48.274;7.796;2022-07-15T08:21:30;24.20;99.90
7360;DHT22;3720;48.274;7.796;2022-07-15T08:24:02;24.30;99.90
7360;DHT22;3720;48.274;7.796;2022-07-15T08:26:34;24.40;99.90
7360;DHT22;3720;48.274;7.796;2022-07-15T08:29:08;24.40;99.90
7360;DHT22;3720;48.274;7.796;2022-07-15T08:31:42;24.60;99.90
7360;DHT22;3720;48.274;7.796;2022-07-15T08:34:14;24.60;99.60
7360;DHT22;3720;48.274;7.796;2022-07-15T08:36:46;24.70;99.20
7360;DHT22;3720;48.274;7.796;2022-07-15T08:39:18;24.80;98.70
7360;DHT22;3720;48.274;7.796;2022-07-15T08:41:51;24.90;98.50
7360;DHT22;3720;48.274;7.796;2022-07-15T08:44:24;25.00;97.40
7360;DHT22;3720;48.274;7.796;2022-07-15T08:47:01;25.10;97.70
7360;DHT22;3720;48.274;7.796;2022-07-15T08:49:34;25.10;96.70
7360;DHT22;3720;48.274;7.796;2022-07-15T08:52:10;25.30;97.40
7360;DHT22;3720;48.274;7.796;2022-07-15T08:54:43;25.30;97.50
7360;DHT22;3720;48.274;7.796;2022-07-15T08:57:14;25.40;97.60
7360;DHT22;3720;48.274;7.796;2022-07-15T08:59:51;25.50;96.50
7360;DHT22;3720;48.274;7.796;2022-07-15T09:02:23;25.60;97.40
7360;DHT22;3720;48.274;7.796;2022-07-15T09:05:21;25.70;96.70
7360;DHT22;3720;48.274;7.796;2022-07-15T09:07:59;25.80;95.40
7360;DHT22;3720;48.274;7.796;2022-07-15T09:10:50;25.80;95.70
7360;DHT22;3720;48.274;7.796;2022-07-15T09:13:29;25.90;96.00
7360;DHT22;3720;48.274;7.796;2022-07-15T09:16:05;26.10;95.90
7360;DHT22;3720;48.274;7.796;2022-07-15T09:18:41;26.10;95.30
7360;DHT22;3720;48.274;7.796;2022-07-15T09:21:16;26.30;95.20
7360;DHT22;3720;48.274;7.796;2022-07-15T09:23:48;26.40;94.30
7360;DHT22;3720;48.274;7.796;2022-07-15T09:26:25;26.50;93.70
7360;DHT22;3720;48.274;7.796;2022-07-15T09:28:59;26.70;93.70
7360;DHT22;3720;48.274;7.796;2022-07-15T09:31:34;26.70;92.30
7360;DHT22;3720;48.274;7.796;2022-07-15T09:34:25;26.80;90.80
7360;DHT22;3720;48.274;7.796;2022-07-15T09:36:57;26.90;90.20
7360;DHT22;3720;48.274;7.796;2022-07-15T09:39:53;27.00;90.40
7360;DHT22;3720;48.274;7.796;2022-07-15T09:42:26;27.10;90.80
7360;DHT22;3720;48.274;7.796;2022-07-15T09:45:18;27.20;90.30
7360;DHT22;3720;48.274;7.796;2022-07-15T09:48:06;27.30;88.00
7360;DHT22;3720;48.274;7.796;2022-07-15T09:50:38;27.50;87.10
7360;DHT22;3720;48.274;7.796;2022-07-15T09:53:12;27.60;86.10
7360;DHT22;3720;48.274;7.796;2022-07-15T09:55:44;27.70;85.20
7360;DHT22;3720;48.274;7.796;2022-07-15T09:58:17;27.80;85.20
7360;DHT22;3720;48.274;7.796;2022-07-15T10:00:50;27.90;80.80
7360;DHT22;3720;48.274;7.796;2022-07-15T10:03:25;28.00;81.10
7360;DHT22;3720;48.274;7.796;2022-07-15T10:05:57;28.00;79.40
7360;DHT22;3720;48.274;7.796;2022-07-15T10:08:30;28.20;80.00
7360;DHT22;3720;48.274;7.796;2022-07-15T10:11:08;28.30;74.80
7360;DHT22;3720;48.274;7.796;2022-07-15T10:14:15;28.40;74.10
7360;DHT22;3720;48.274;7.796;2022-07-15T10:17:15;28.60;72.80
7360;DHT22;3720;48.274;7.796;2022-07-15T10:20:27;28.70;72.70
7360;DHT22;3720;48.274;7.796;2022-07-15T10:23:09;28.80;70.30
7360;DHT22;3720;48.274;7.796;2022-07-15T10:25:55;28.90;68.00
7360;DHT22;3720;48.274;7.796;2022-07-15T10:28:43;29.00;68.90
7360;DHT22;3720;48.274;7.796;2022-07-15T10:31:20;29.10;67.30
7360;DHT22;3720;48.274;7.796;2022-07-15T10:34:18;29.20;71.00
7360;DHT22;3720;48.274;7.796;2022-07-15T10:36:56;29.40;71.10
7360;DHT22;3720;48.274;7.796;2022-07-15T10:39:48;29.60;68.80
7360;DHT22;3720;48.274;7.796;2022-07-15T10:42:21;29.70;67.30
7360;DHT22;3720;48.274;7.796;2022-07-15T10:45:17;29.80;67.30
7360;DHT22;3720;48.274;7.796;2022-07-15T10:48:25;30.00;66.50
7360;DHT22;3720;48.274;7.796;2022-07-15T10:50:57;30.10;66.30
7360;DHT22;3720;48.274;7.796;2022-07-15T10:53:30;30.10;64.00
7360;DHT22;3720;48.274;7.796;2022-07-15T10:56:26;30.20;62.50
7360;DHT22;3720;48.274;7.796;2022-07-15T10:59:07;30.30;63.90
7360;DHT22;3720;48.274;7.796;2022-07-15T11:01:41;30.40;62.60
7360;DHT22;3720;48.274;7.796;2022-07-15T11:04:15;30.50;62.30
7360;DHT22;3720;48.274;7.796;2022-07-15T11:07:28;30.60;61.80
7360;DHT22;3720;48.274;7.796;2022-07-15T11:10:20;30.70;61.10
7360;DHT22;3720;48.274;7.796;2022-07-15T11:13:11;30.90;60.50
7360;DHT22;3720;48.274;7.796;2022-07-15T11:15:43;31.00;58.90
7360;DHT22;3720;48.274;7.796;2022-07-15T11:18:19;31.20;58.10
7360;DHT22;3720;48.274;7.796;2022-07-15T11:20:52;31.20;57.90
7360;DHT22;3720;48.274;7.796;2022-07-15T11:23:29;31.30;57.80
7360;DHT22;3720;48.274;7.796;2022-07-15T11:26:04;31.30;58.00
7360;DHT22;3720;48.274;7.796;2022-07-15T11:28:36;31.40;58.20
7360;DHT22;3720;48.274;7.796;2022-07-15T11:31:08;31.50;57.90
7360;DHT22;3720;48.274;7.796;2022-07-15T11:33:40;31.60;57.90
7360;DHT22;3720;48.274;7.796;2022-07-15T11:36:18;31.80;57.40
7360;DHT22;3720;48.274;7.796;2022-07-15T11:38:52;31.90;55.40
7360;DHT22;3720;48.274;7.796;2022-07-15T11:41:25;32.10;55.80
7360;DHT22;3720;48.274;7.796;2022-07-15T11:44:14;32.30;55.60
7360;DHT22;3720;48.274;7.796;2022-07-15T11:47:02;32.50;55.50
7360;DHT22;3720;48.274;7.796;2022-07-15T11:49:37;32.70;55.00
7360;DHT22;3720;48.274;7.796;2022-07-15T11:52:12;32.90;54.10
7360;DHT22;3720;48.274;7.796;2022-07-15T11:54:45;32.80;53.20
7360;DHT22;3720;48.274;7.796;2022-07-15T11:57:18;32.60;53.70
7360;DHT22;3720;48.274;7.796;2022-07-15T11:59:52;32.70;53.00
7360;DHT22;3720;48.274;7.796;2022-07-15T12:02:26;32.80;52.60
7360;DHT22;3720;48.274;7.796;2022-07-15T12:05:03;32.90;52.80
7360;DHT22;3720;48.274;7.796;2022-07-15T12:07:43;33.10;53.30
7360;DHT22;3720;48.274;7.796;2022-07-15T12:10:16;33.10;52.30
7360;DHT22;3720;48.274;7.796;2022-07-15T12:13:05;33.20;52.70
7360;DHT22;3720;48.274;7.796;2022-07-15T12:15:37;33.20;51.80
7360;DHT22;3720;48.274;7.796;2022-07-15T12:18:10;33.20;52.90
7360;DHT22;3720;48.274;7.796;2022-07-15T12:20:42;33.30;52.20
7360;DHT22;3720;48.274;7.796;2022-07-15T12:23:15;33.50;51.30
7360;DHT22;3720;48.274;7.796;2022-07-15T12:25:59;33.70;50.80
7360;DHT22;3720;48.274;7.796;2022-07-15T12:28:35;33.80;50.40
7360;DHT22;3720;48.274;7.796;2022-07-15T12:31:08;33.80;49.70
7360;DHT22;3720;48.274;7.796;2022-07-15T12:33:41;33.90;49.90
7360;DHT22;3720;48.274;7.796;2022-07-15T12:36:15;33.90;50.00
7360;DHT22;3720;48.274;7.796;2022-07-15T12:39:06;33.80;49.10
7360;DHT22;3720;48.274;7.796;2022-07-15T12:41:40;33.80;49.70
7360;DHT22;3720;48.274;7.796;2022-07-15T12:44:14;34.00;49.20
7360;DHT22;3720;48.274;7.796;2022-07-15T12:46:52;34.10;49.40
7360;DHT22;3720;48.274;7.796;2022-07-15T12:49:46;34.20;49.30
7360;DHT22;3720;48.274;7.796;2022-07-15T12:52:21;34.10;48.60
7360;DHT22;3720;48.274;7.796;2022-07-15T12:54:55;34.20;48.70
7360;DHT22;3720;48.274;7.796;2022-07-15T12:57:30;34.20;48.70
7360;DHT22;3720;48.274;7.796;2022-07-15T13:00:06;34.30;49.20
7360;DHT22;3720;48.274;7.796;2022-07-15T13:03:01;34.50;48.70
7360;DHT22;3720;48.274;7.796;2022-07-15T13:05:36;34.60;47.80
7360;DHT22;3720;48.274;7.796;2022-07-15T13:08:10;34.10;48.10
7360;DHT22;3720;48.274;7.796;2022-07-15T13:10:44;34.20;48.70
7360;DHT22;3720;48.274;7.796;2022-07-15T13:13:18;34.30;47.70
7360;DHT22;3720;48.274;7.796;2022-07-15T13:15:52;34.10;48.60
7360;DHT22;3720;48.274;7.796;2022-07-15T13:18:24;34.00;47.80
7360;DHT22;3720;48.274;7.796;2022-07-15T13:20:57;33.50;47.10
7360;DHT22;3720;48.274;7.796;2022-07-15T13:23:30;33.40;48.70
7360;DHT22;3720;48.274;7.796;2022-07-15T13:26:02;33.50;48.30
7360;DHT22;3720;48.274;7.796;2022-07-15T13:28:34;33.80;48.60
7360;DHT22;3720;48.274;7.796;2022-07-15T13:31:08;34.10;48.40
7360;DHT22;3720;48.274;7.796;2022-07-15T13:33:40;34.20;45.90
7360;DHT22;3720;48.274;7.796;2022-07-15T13:36:11;34.50;47.00
7360;DHT22;3720;48.274;7.796;2022-07-15T13:38:43;34.70;47.20
7360;DHT22;3720;48.274;7.796;2022-07-15T13:41:15;35.00;46.30
7360;DHT22;3720;48.274;7.796;2022-07-15T13:43:47;35.10;45.20
7360;DHT22;3720;48.274;7.796;2022-07-15T13:46:20;35.20;45.30
7360;DHT22;3720;48.274;7.796;2022-07-15T13:48:53;35.40;46.00
7360;DHT22;3720;48.274;7.796;2022-07-15T13:51:26;35.50;44.40
7360;DHT22;3720;48.274;7.796;2022-07-15T13:53:57;35.40;43.40
7360;DHT22;3720;48.274;7.796;2022-07-15T13:56:29;35.50;44.10
7360;DHT22;3720;48.274;7.796;2022-07-15T13:59:02;35.40;43.60
7360;DHT22;3720;48.274;7.796;2022-07-15T14:01:36;35.40;42.90
7360;DHT22;3720;48.274;7.796;2022-07-15T14:04:08;35.40;43.50
7360;DHT22;3720;48.274;7.796;2022-07-15T14:06:40;35.50;42.80
7360;DHT22;3720;48.274;7.796;2022-07-15T14:09:12;35.40;43.10
7360;DHT22;3720;48.274;7.796;2022-07-15T14:11:44;35.20;43.30
7360;DHT22;3720;48.274;7.796;2022-07-15T14:14:16;35.20;43.30
7360;DHT22;3720;48.274;7.796;2022-07-15T14:16:52;35.40;43.30
7360;DHT22;3720;48.274;7.796;2022-07-15T14:19:24;35.40;42.80
7360;DHT22;3720;48.274;7.796;2022-07-15T14:21:56;35.20;43.20
7360;DHT22;3720;48.274;7.796;2022-07-15T14:24:27;35.20;42.60
7360;DHT22;3720;48.274;7.796;2022-07-15T14:27:00;35.10;43.60
7360;DHT22;3720;48.274;7.796;2022-07-15T14:29:31;35.10;43.40
7360;DHT22;3720;48.274;7.796;2022-07-15T14:32:06;35.20;42.10
7360;DHT22;3720;48.274;7.796;2022-07-15T14:34:39;35.30;42.40
7360;DHT22;3720;48.274;7.796;2022-07-15T14:37:11;35.40;42.50
7360;DHT22;3720;48.274;7.796;2022-07-15T14:39:43;35.20;42.20
7360;DHT22;3720;48.274;7.796;2022-07-15T14:42:15;35.10;42.20
7360;DHT22;3720;48.274;7.796;2022-07-15T14:44:48;35.20;41.60
7360;DHT22;3720;48.274;7.796;2022-07-15T14:47:21;35.10;41.50
7360;DHT22;3720;48.274;7.796;2022-07-15T14:49:53;35.20;41.80
7360;DHT22;3720;48.274;7.796;2022-07-15T14:52:25;35.30;40.10
7360;DHT22;3720;48.274;7.796;2022-07-15T14:54:57;35.40;41.30
7360;DHT22;3720;48.274;7.796;2022-07-15T14:57:29;35.40;40.00
7360;DHT22;3720;48.274;7.796;2022-07-15T15:00:02;35.40;40.20
7360;DHT22;3720;48.274;7.796;2022-07-15T15:02:36;35.50;40.60
7360;DHT22;3720;48.274;7.796;2022-07-15T15:05:08;35.50;40.50
7360;DHT22;3720;48.274;7.796;2022-07-15T15:07:40;35.30;40.70
7360;DHT22;3720;48.274;7.796;2022-07-15T15:10:12;35.10;40.00
7360;DHT22;3720;48.274;7.796;2022-07-15T15:12:44;35.00;40.80
7360;DHT22;3720;48.274;7.796;2022-07-15T15:15:16;35.00;41.80
7360;DHT22;3720;48.274;7.796;2022-07-15T15:17:50;35.10;41.60
7360;DHT22;3720;48.274;7.796;2022-07-15T15:20:22;35.20;40.60
7360;DHT22;3720;48.274;7.796;2022-07-15T15:22:54;35.30;40.50
7360;DHT22;3720;48.274;7.796;2022-07-15T15:25:26;35.20;41.00
7360;DHT22;3720;48.274;7.796;2022-07-15T15:28:16;35.10;40.20
7360;DHT22;3720;48.274;7.796;2022-07-15T15:30:48;35.00;40.90
7360;DHT22;3720;48.274;7.796;2022-07-15T15:33:21;34.90;40.40
7360;DHT22;3720;48.274;7.796;2022-07-15T15:35:53;34.90;40.50
7360;DHT22;3720;48.274;7.796;2022-07-15T15:38:25;34.80;41.40
7360;DHT22;3720;48.274;7.796;2022-07-15T15:40:57;34.80;40.80
7360;DHT22;3720;48.274;7.796;2022-07-15T15:43:30;34.80;41.20
7360;DHT22;3720;48.274;7.796;2022-07-15T15:46:02;34.70;41.70
7360;DHT22;3720;48.274;7.796;2022-07-15T15:48:36;34.70;41.40
7360;DHT22;3720;48.274;7.796;2022-07-15T15:51:07;34.70;41.20
7360;DHT22;3720;48.274;7.796;2022-07-15T15:53:39;34.80;41.60
7360;DHT22;3720;48.274;7.796;2022-07-15T15:56:12;34.80;41.00
7360;DHT22;3720;48.274;7.796;2022-07-15T15:58:44;34.80;41.00
7360;DHT22;3720;48.274;7.796;2022-07-15T16:01:16;34.80;40.90
7360;DHT22;3720;48.274;7.796;2022-07-15T16:03:49;34.70;41.60
7360;DHT22;3720;48.274;7.796;2022-07-15T16:06:21;34.70;41.40
7360;DHT22;3720;48.274;7.796;2022-07-15T16:08:53;34.70;41.80
7360;DHT22;3720;48.274;7.796;2022-07-15T16:11:25;34.50;41.00
7360;DHT22;3720;48.274;7.796;2022-07-15T16:13:57;34.40;40.70
7360;DHT22;3720;48.274;7.796;2022-07-15T16:16:29;34.30;41.30
7360;DHT22;3720;48.274;7.796;2022-07-15T16:19:03;34.10;40.30
7360;DHT22;3720;48.274;7.796;2022-07-15T16:21:35;34.00;41.80
7360;DHT22;3720;48.274;7.796;2022-07-15T16:24:25;34.00;41.30
7360;DHT22;3720;48.274;7.796;2022-07-15T16:26:57;34.00;42.20
7360;DHT22;3720;48.274;7.796;2022-07-15T16:29:29;33.90;42.00
7360;DHT22;3720;48.274;7.796;2022-07-15T16:32:00;33.90;42.70
7360;DHT22;3720;48.274;7.796;2022-07-15T16:34:34;33.90;42.20
7360;DHT22;3720;48.274;7.796;2022-07-15T16:37:06;33.90;41.70
7360;DHT22;3720;48.274;7.796;2022-07-15T16:39:38;33.90;41.70
7360;DHT22;3720;48.274;7.796;2022-07-15T16:42:10;33.80;42.50
7360;DHT22;3720;48.274;7.796;2022-07-15T16:44:42;33.60;42.60
7360;DHT22;3720;48.274;7.796;2022-07-15T16:47:14;33.50;43.00
7360;DHT22;3720;48.274;7.796;2022-07-15T16:49:47;33.30;42.50